Time;durP1;ratioP1;P1;durP2;ratioP2;P2;SDS_P1;SDS_P2;PMS_P1;PMS_P2;Temp;Humidity;BMP_temperature;BMP_pressure;BME280_temperature;BME280_humidity;BME280_pressure;Samples;Min_cycle;Max_cycle;Signal;HPM_P1;HPM_P2
2021/12/05 00:22:46;;;;;;;;;;;1.40;99.90;;;;;;5051866;28;19924;-73
2021/12/05 00:25:15;;;;;;;;;;;1.40;99.90;;;;;;5049175;28;19921;-75
2021/12/05 00:27:47;;;;;;;;;;;1.40;99.90;;;;;;5048176;28;20012;-76
2021/12/05 00:41:32;;;;;;;;;;;1.50;99.90;;;;;;5046942;28;19934;-75
2021/12/05 00:49:55;;;;;;;;;;;1.70;99.90;;;;;;5048811;28;20227;-75
2021/12/05 00:58:05;;;;;;;;;;;1.70;99.90;;;;;;5043654;28;19924;-75
2021/12/05 01:03:29;;;;;;;;;;;1.70;99.90;;;;;;5039316;28;20407;-73
2021/12/05 01:11:25;;;;;;;;;;;2.00;99.90;;;;;;5040339;28;20179;-76
2021/12/05 01:14:06;;;;;;;;;;;2.10;99.90;;;;;;5041413;28;19936;-75
2021/12/05 01:16:33;;;;;;;;;;;2.20;99.90;;;;;;5047722;28;19925;-76
2021/12/05 01:19:00;;;;;;;;;;;2.20;99.90;;;;;;5052602;28;19990;-76
2021/12/05 01:21:27;;;;;;;;;;;2.30;99.90;;;;;;5053343;28;19924;-76
2021/12/05 01:26:56;;;;;;;;;;;2.40;99.90;;;;;;5047433;28;20355;-77
2021/12/05 02:01:10;;;;;;;;;;;3.00;99.90;;;;;;5053851;28;19982;-75
2021/12/05 02:09:38;;;;;;;;;;;3.00;99.90;;;;;;5043278;28;20391;-75
2021/12/05 02:42:13;;;;;;;;;;;2.10;99.90;;;;;;5046219;28;20371;-75
2021/12/05 02:44:41;;;;;;;;;;;2.00;99.90;;;;;;5041528;28;20314;-75
2021/12/05 02:47:12;;;;;;;;;;;2.00;99.90;;;;;;5041808;28;20348;-75
2021/12/05 02:49:40;;;;;;;;;;;1.90;99.90;;;;;;5046133;28;20409;-75
2021/12/05 02:52:08;;;;;;;;;;;1.80;99.90;;;;;;5045796;28;19964;-75
2021/12/05 02:54:42;;;;;;;;;;;1.70;99.90;;;;;;5038816;28;19926;-75
2021/12/05 02:57:09;;;;;;;;;;;1.70;99.90;;;;;;5043268;28;20432;-75
2021/12/05 03:02:13;;;;;;;;;;;1.60;99.90;;;;;;5047824;28;19941;-75
2021/12/05 03:04:48;;;;;;;;;;;1.50;99.90;;;;;;5048094;28;20167;-75
2021/12/05 03:07:17;;;;;;;;;;;1.40;99.90;;;;;;5047730;28;19925;-75
2021/12/05 03:09:46;;;;;;;;;;;1.40;99.90;;;;;;5050060;28;19935;-75
2021/12/05 03:12:17;;;;;;;;;;;1.30;99.90;;;;;;5049044;28;20346;-75
2021/12/05 03:14:49;;;;;;;;;;;1.10;99.90;;;;;;5050427;28;20035;-75
2021/12/05 03:17:16;;;;;;;;;;;0.90;99.90;;;;;;5047470;28;20007;-75
2021/12/05 03:19:46;;;;;;;;;;;0.80;99.90;;;;;;5049617;28;19925;-75
2021/12/05 03:22:15;;;;;;;;;;;0.70;99.90;;;;;;5048854;28;20442;-74
2021/12/05 03:24:42;;;;;;;;;;;0.70;99.90;;;;;;5032868;28;19936;-75
2021/12/05 03:27:09;;;;;;;;;;;0.70;99.90;;;;;;5049330;28;20144;-75
2021/12/05 03:29:36;;;;;;;;;;;0.80;99.90;;;;;;5039215;28;19987;-75
2021/12/05 03:32:04;;;;;;;;;;;0.80;99.90;;;;;;5048255;28;20029;-75
2021/12/05 03:34:31;;;;;;;;;;;0.90;99.90;;;;;;5050075;28;19925;-75
2021/12/05 03:36:58;;;;;;;;;;;1.00;99.90;;;;;;5050709;28;19924;-75
2021/12/05 03:39:25;;;;;;;;;;;1.10;99.90;;;;;;5038672;28;20207;-75
2021/12/05 03:41:53;;;;;;;;;;;1.10;99.90;;;;;;5043337;28;19951;-75
2021/12/05 03:44:23;;;;;;;;;;;1.10;99.90;;;;;;5051188;28;19937;-75
2021/12/05 03:46:54;;;;;;;;;;;1.10;99.90;;;;;;5063851;28;19925;-75
2021/12/05 03:49:21;;;;;;;;;;;1.20;99.90;;;;;;5061198;28;20572;-75
2021/12/05 03:51:52;;;;;;;;;;;1.10;99.90;;;;;;5042043;28;19931;-75
2021/12/05 03:54:19;;;;;;;;;;;1.10;99.90;;;;;;5049268;28;20250;-75
2021/12/05 03:56:51;;;;;;;;;;;1.10;99.90;;;;;;5048138;28;19948;-75
2021/12/05 03:59:18;;;;;;;;;;;1.10;99.90;;;;;;5046983;28;19924;-74
2021/12/05 04:01:47;;;;;;;;;;;1.30;99.90;;;;;;5042408;28;20071;-75
2021/12/05 04:04:14;;;;;;;;;;;1.40;99.90;;;;;;5046185;28;19925;-75
2021/12/05 04:06:41;;;;;;;;;;;1.60;99.90;;;;;;5047113;28;19931;-75
2021/12/05 04:09:10;;;;;;;;;;;1.70;99.90;;;;;;5065198;28;19932;-75
2021/12/05 04:11:46;;;;;;;;;;;1.70;99.90;;;;;;5049913;28;20035;-75
2021/12/05 04:14:17;;;;;;;;;;;1.80;99.90;;;;;;5049537;28;20019;-75
2021/12/05 04:16:44;;;;;;;;;;;1.90;99.90;;;;;;5049082;28;19929;-75
2021/12/05 04:19:11;;;;;;;;;;;2.00;99.90;;;;;;5048306;28;20417;-76
2021/12/05 04:21:38;;;;;;;;;;;2.10;99.90;;;;;;5047207;28;20451;-75
2021/12/05 04:24:06;;;;;;;;;;;2.20;99.90;;;;;;5044159;28;19924;-75
2021/12/05 04:26:33;;;;;;;;;;;2.20;99.90;;;;;;5047099;28;19935;-75
2021/12/05 04:29:00;;;;;;;;;;;2.20;99.90;;;;;;5048156;28;19925;-75
2021/12/05 04:31:26;;;;;;;;;;;2.20;99.90;;;;;;5050236;28;19930;-75
2021/12/05 04:33:53;;;;;;;;;;;2.20;99.90;;;;;;5050690;28;19960;-75
2021/12/05 04:36:20;;;;;;;;;;;2.10;99.90;;;;;;5047533;28;19967;-75
2021/12/05 04:38:47;;;;;;;;;;;2.20;99.90;;;;;;5048696;28;20416;-75
2021/12/05 04:41:14;;;;;;;;;;;2.20;99.90;;;;;;5049079;28;20314;-75
2021/12/05 04:43:41;;;;;;;;;;;2.10;99.90;;;;;;5049051;28;19932;-75
2021/12/05 04:46:10;;;;;;;;;;;2.00;99.90;;;;;;5041776;28;20523;-75
2021/12/05 04:48:37;;;;;;;;;;;1.90;99.90;;;;;;5043784;28;19925;-75
2021/12/05 04:51:04;;;;;;;;;;;1.70;99.90;;;;;;5041169;28;19925;-75
2021/12/05 04:53:34;;;;;;;;;;;1.60;99.90;;;;;;5045500;28;20011;-75
2021/12/05 04:56:01;;;;;;;;;;;1.40;99.90;;;;;;5049663;28;20291;-76
2021/12/05 04:58:28;;;;;;;;;;;1.40;99.90;;;;;;5045301;28;20015;-75
2021/12/05 05:00:57;;;;;;;;;;;1.40;99.90;;;;;;5046661;28;19924;-75
2021/12/05 05:03:29;;;;;;;;;;;1.40;99.90;;;;;;5049976;28;19924;-75
2021/12/05 05:06:05;;;;;;;;;;;1.50;99.90;;;;;;5062409;28;20048;-75
2021/12/05 05:08:32;;;;;;;;;;;1.60;99.90;;;;;;5045585;28;20019;-75
2021/12/05 05:11:00;;;;;;;;;;;1.70;99.90;;;;;;5047663;28;19956;-76
2021/12/05 05:13:27;;;;;;;;;;;1.80;99.90;;;;;;5049131;28;20004;-75
2021/12/05 05:15:54;;;;;;;;;;;1.90;99.90;;;;;;5044543;28;19925;-76
2021/12/05 05:18:23;;;;;;;;;;;1.90;99.90;;;;;;5050268;28;19932;-75
2021/12/05 05:21:19;;;;;;;;;;;2.00;99.90;;;;;;5046592;28;19925;-75
2021/12/05 05:47:40;;;;;;;;;;;1.90;99.90;;;;;;5047578;28;19975;-73
2021/12/05 05:50:07;;;;;;;;;;;1.90;99.90;;;;;;5046485;28;20012;-76
2021/12/05 05:52:33;;;;;;;;;;;2.00;99.90;;;;;;5052138;28;20421;-75
2021/12/05 05:55:01;;;;;;;;;;;2.00;99.90;;;;;;5048285;28;20310;-75
2021/12/05 06:00:16;;;;;;;;;;;2.00;99.90;;;;;;5044787;28;20299;-75
2021/12/05 06:05:31;;;;;;;;;;;1.90;99.90;;;;;;5048437;28;19924;-75
2021/12/05 06:07:57;;;;;;;;;;;1.90;99.90;;;;;;5036225;28;19929;-73
2021/12/05 06:10:26;;;;;;;;;;;1.90;99.90;;;;;;5042082;28;20542;-73
2021/12/05 06:12:53;;;;;;;;;;;2.00;99.90;;;;;;5040614;28;19929;-72
2021/12/05 06:15:21;;;;;;;;;;;2.00;99.90;;;;;;5038382;28;19925;-73
2021/12/05 06:17:48;;;;;;;;;;;1.90;99.90;;;;;;5045196;28;19932;-73
2021/12/05 06:20:17;;;;;;;;;;;1.90;99.90;;;;;;5049436;28;19925;-73
2021/12/05 06:22:45;;;;;;;;;;;1.90;99.90;;;;;;5040704;28;20398;-76
2021/12/05 06:25:19;;;;;;;;;;;1.90;99.90;;;;;;5047924;28;20019;-76
2021/12/05 06:27:46;;;;;;;;;;;1.90;99.90;;;;;;5048297;28;19972;-76
2021/12/05 06:30:21;;;;;;;;;;;2.00;99.90;;;;;;5050198;28;20441;-76
2021/12/05 06:46:20;;;;;;;;;;;2.20;99.90;;;;;;5048651;28;19925;-75
2021/12/05 06:48:52;;;;;;;;;;;2.30;99.90;;;;;;5043383;28;20425;-75
2021/12/05 06:51:24;;;;;;;;;;;2.30;99.90;;;;;;5042831;28;19929;-75
2021/12/05 06:53:51;;;;;;;;;;;2.30;99.90;;;;;;5041451;28;19928;-75
2021/12/05 06:56:18;;;;;;;;;;;2.30;99.90;;;;;;5037495;28;19929;-75
2021/12/05 06:58:45;;;;;;;;;;;2.30;99.90;;;;;;5043745;28;20407;-76
2021/12/05 07:01:12;;;;;;;;;;;2.30;99.90;;;;;;5044064;28;19939;-76
2021/12/05 07:03:42;;;;;;;;;;;2.30;99.90;;;;;;5047224;28;19939;-75
2021/12/05 07:06:19;;;;;;;;;;;2.30;99.90;;;;;;5041185;28;19933;-76
2021/12/05 07:08:47;;;;;;;;;;;2.30;99.90;;;;;;5040759;28;20019;-75
2021/12/05 07:11:28;;;;;;;;;;;2.30;99.90;;;;;;5046159;28;19966;-75
2021/12/05 07:19:30;;;;;;;;;;;2.30;99.90;;;;;;5043817;28;21055;-75
2021/12/05 07:24:42;;;;;;;;;;;2.30;99.90;;;;;;5045831;28;19998;-75
2021/12/05 07:43:53;;;;;;;;;;;2.40;99.90;;;;;;5038413;28;19941;-75
2021/12/05 07:46:20;;;;;;;;;;;2.40;99.90;;;;;;5037802;28;19983;-75
2021/12/05 07:48:47;;;;;;;;;;;2.50;99.90;;;;;;5039303;28;19964;-75
2021/12/05 07:53:57;;;;;;;;;;;2.50;99.90;;;;;;5042490;28;19971;-77
2021/12/05 08:15:33;;;;;;;;;;;3.00;99.90;;;;;;5047363;28;20020;-73
2021/12/05 08:18:00;;;;;;;;;;;3.30;99.90;;;;;;5040913;28;20035;-74
2021/12/05 08:20:33;;;;;;;;;;;3.50;99.90;;;;;;5061062;28;20466;-74
2021/12/05 08:23:00;;;;;;;;;;;3.40;99.90;;;;;;5048128;28;19933;-74
2021/12/05 08:25:30;;;;;;;;;;;3.40;99.90;;;;;;5047806;28;19925;-73
2021/12/05 08:28:33;;;;;;;;;;;3.50;99.90;;;;;;5034229;28;20324;-73
2021/12/05 09:19:52;;;;;;;;;;;3.60;99.90;;;;;;5042500;28;19937;-76
2021/12/05 09:25:13;;;;;;;;;;;4.70;99.90;;;;;;5046474;28;19925;-74
2021/12/05 10:11:09;;;;;;;;;;;4.60;99.90;;;;;;5042626;28;20426;-74
2021/12/05 10:16:25;;;;;;;;;;;4.60;99.90;;;;;;5047153;28;20015;-74
2021/12/05 10:38:08;;;;;;;;;;;6.30;99.90;;;;;;5069805;28;19967;-74
2021/12/05 10:40:40;;;;;;;;;;;6.60;99.90;;;;;;5053748;28;20007;-73
2021/12/05 10:43:34;;;;;;;;;;;6.30;99.90;;;;;;5046654;28;19968;-74
2021/12/05 10:46:09;;;;;;;;;;;6.00;99.90;;;;;;5037323;28;20191;-74
2021/12/05 10:48:37;;;;;;;;;;;5.80;99.90;;;;;;5042360;28;20435;-74
2021/12/05 10:51:08;;;;;;;;;;;5.50;99.90;;;;;;5045258;28;19927;-74
2021/12/05 10:53:37;;;;;;;;;;;5.40;99.90;;;;;;5036638;28;20015;-74
2021/12/05 10:56:04;;;;;;;;;;;5.60;99.90;;;;;;5041945;28;19927;-74
2021/12/05 10:58:47;;;;;;;;;;;6.10;99.90;;;;;;5042792;28;19929;-74
2021/12/05 11:01:23;;;;;;;;;;;6.60;99.90;;;;;;5029014;28;19925;-77
2021/12/05 11:03:52;;;;;;;;;;;7.60;99.90;;;;;;5037222;28;20375;-77
2021/12/05 11:06:33;;;;;;;;;;;7.80;99.90;;;;;;5039320;28;20039;-74
2021/12/05 11:09:03;;;;;;;;;;;7.20;99.90;;;;;;5035907;28;19994;-74
2021/12/05 11:11:30;;;;;;;;;;;7.10;99.90;;;;;;5041601;28;20335;-77
2021/12/05 11:13:58;;;;;;;;;;;7.50;99.90;;;;;;5044661;28;20229;-77
2021/12/05 11:16:33;;;;;;;;;;;7.60;99.90;;;;;;5041529;28;20366;-75
2021/12/05 11:19:01;;;;;;;;;;;7.60;99.90;;;;;;5046307;28;20031;-77
2021/12/05 11:21:34;;;;;;;;;;;7.50;99.90;;;;;;5047994;28;19927;-75
2021/12/05 11:24:09;;;;;;;;;;;7.70;99.90;;;;;;5045211;28;19924;-74
2021/12/05 11:26:39;;;;;;;;;;;8.00;99.90;;;;;;5048398;28;19925;-75
2021/12/05 11:29:07;;;;;;;;;;;8.70;99.90;;;;;;5047983;28;20303;-75
2021/12/05 11:31:34;;;;;;;;;;;9.40;99.90;;;;;;5041331;28;20302;-75
2021/12/05 11:34:03;;;;;;;;;;;8.70;99.90;;;;;;5046934;28;20334;-75
2021/12/05 11:36:33;;;;;;;;;;;8.40;99.90;;;;;;5049344;28;19920;-74
2021/12/05 11:39:18;;;;;;;;;;;8.10;99.90;;;;;;5048792;28;19927;-75
2021/12/05 11:41:45;;;;;;;;;;;7.70;99.90;;;;;;5045380;28;19928;-74
2021/12/05 11:44:16;;;;;;;;;;;7.40;99.90;;;;;;5045855;28;20039;-74
2021/12/05 11:46:44;;;;;;;;;;;7.30;99.90;;;;;;5036300;28;19939;-75
2021/12/05 11:49:13;;;;;;;;;;;7.30;99.90;;;;;;5043421;28;19925;-74
2021/12/05 11:51:55;;;;;;;;;;;7.80;99.90;;;;;;5048471;28;20426;-74
2021/12/05 11:54:33;;;;;;;;;;;8.10;99.90;;;;;;5043724;28;19927;-74
2021/12/05 11:57:16;;;;;;;;;;;8.70;99.90;;;;;;5051381;28;19920;-75
2021/12/05 11:59:42;;;;;;;;;;;9.60;99.90;;;;;;5046239;28;20380;-75
2021/12/05 12:02:18;;;;;;;;;;;10.40;99.90;;;;;;5047153;28;19925;-75
2021/12/05 12:04:48;;;;;;;;;;;9.90;99.90;;;;;;5036930;28;19921;-74
2021/12/05 12:07:37;;;;;;;;;;;8.80;99.90;;;;;;5057533;28;20012;-74
2021/12/05 12:10:09;;;;;;;;;;;8.10;99.90;;;;;;5044310;28;19925;-74
2021/12/05 12:12:39;;;;;;;;;;;8.20;99.90;;;;;;5047267;28;19994;-75
2021/12/05 12:15:07;;;;;;;;;;;9.10;99.90;;;;;;5043193;28;19927;-75
2021/12/05 12:17:34;;;;;;;;;;;10.10;99.90;;;;;;5046542;28;19925;-74
2021/12/05 12:20:04;;;;;;;;;;;9.80;99.90;;;;;;5046490;28;19921;-74
2021/12/05 12:22:31;;;;;;;;;;;8.90;99.90;;;;;;5048103;28;19925;-74
2021/12/05 12:25:05;;;;;;;;;;;8.00;99.90;;;;;;5047052;28;20365;-74
2021/12/05 12:27:32;;;;;;;;;;;7.70;99.90;;;;;;5049041;28;19934;-74
2021/12/05 12:29:59;;;;;;;;;;;7.20;99.90;;;;;;5043851;28;20299;-74
2021/12/05 12:32:29;;;;;;;;;;;7.10;99.90;;;;;;5039666;28;19920;-74
2021/12/05 12:35:04;;;;;;;;;;;7.50;99.90;;;;;;5062302;28;19921;-75
2021/12/05 12:37:53;;;;;;;;;;;8.20;99.90;;;;;;5039811;28;20307;-74
2021/12/05 12:40:32;;;;;;;;;;;8.90;99.90;;;;;;5036613;28;19927;-74
2021/12/05 12:43:03;;;;;;;;;;;9.30;99.90;;;;;;5046894;28;19935;-74
2021/12/05 12:45:35;;;;;;;;;;;9.60;99.90;;;;;;5034426;28;19924;-74
2021/12/05 12:48:03;;;;;;;;;;;9.80;99.90;;;;;;5050038;28;19931;-74
2021/12/05 12:50:36;;;;;;;;;;;9.70;99.90;;;;;;5047491;28;19971;-74
2021/12/05 12:53:02;;;;;;;;;;;9.50;99.90;;;;;;5060356;28;20016;-74
2021/12/05 12:55:33;;;;;;;;;;;9.40;99.90;;;;;;5048405;28;19974;-74
2021/12/05 12:58:04;;;;;;;;;;;9.30;99.90;;;;;;5049365;28;20019;-74
2021/12/05 13:00:32;;;;;;;;;;;9.00;99.90;;;;;;5036652;28;20430;-74
2021/12/05 13:03:12;;;;;;;;;;;9.10;99.90;;;;;;5031094;28;19921;-75
2021/12/05 13:11:06;;;;;;;;;;;8.80;99.90;;;;;;5037909;28;20100;-74
2021/12/05 13:13:36;;;;;;;;;;;8.00;99.90;;;;;;5038134;28;19920;-74
2021/12/05 13:16:26;;;;;;;;;;;7.20;99.90;;;;;;5048262;28;19920;-74
2021/12/05 13:18:58;;;;;;;;;;;6.90;99.90;;;;;;5046790;28;19987;-74
2021/12/05 13:21:35;;;;;;;;;;;6.50;99.90;;;;;;5040650;28;19921;-74
2021/12/05 13:24:25;;;;;;;;;;;6.10;99.90;;;;;;5038134;28;20712;-72
2021/12/05 13:26:54;;;;;;;;;;;5.90;99.90;;;;;;5042436;28;20302;-72
2021/12/05 13:29:22;;;;;;;;;;;5.60;99.90;;;;;;5043228;28;20031;-72
2021/12/05 13:32:10;;;;;;;;;;;5.40;99.90;;;;;;5037292;28;20330;-74
2021/12/05 13:34:49;;;;;;;;;;;5.40;99.90;;;;;;5043234;28;19927;-73
2021/12/05 13:37:16;;;;;;;;;;;5.40;99.90;;;;;;5045855;28;19959;-72
2021/12/05 13:39:46;;;;;;;;;;;5.50;99.90;;;;;;5049296;28;19920;-73
2021/12/05 13:42:16;;;;;;;;;;;5.60;99.90;;;;;;5039464;28;20021;-73
2021/12/05 13:44:58;;;;;;;;;;;5.80;99.90;;;;;;5036322;28;20044;-73
2021/12/05 13:47:29;;;;;;;;;;;5.90;99.90;;;;;;5057527;28;19927;-73
2021/12/05 13:49:57;;;;;;;;;;;6.00;99.90;;;;;;5036405;28;19951;-73
2021/12/05 13:52:29;;;;;;;;;;;6.00;99.90;;;;;;5045898;28;20307;-73
2021/12/05 13:55:20;;;;;;;;;;;6.00;99.90;;;;;;5030772;28;20365;-73
2021/12/05 13:58:05;;;;;;;;;;;6.00;99.90;;;;;;5033363;28;19982;-73
2021/12/05 14:00:37;;;;;;;;;;;6.10;99.90;;;;;;5046871;28;20007;-73
2021/12/05 14:03:04;;;;;;;;;;;6.20;99.90;;;;;;5047069;28;19920;-73
2021/12/05 14:05:31;;;;;;;;;;;6.30;99.90;;;;;;5048857;28;19999;-73
2021/12/05 14:07:58;;;;;;;;;;;6.40;99.90;;;;;;5047785;28;19978;-73
2021/12/05 14:10:25;;;;;;;;;;;6.40;99.90;;;;;;5046589;28;19931;-73
2021/12/05 14:12:52;;;;;;;;;;;6.30;99.90;;;;;;5045734;28;19928;-73
2021/12/05 14:15:18;;;;;;;;;;;6.10;99.90;;;;;;5046033;28;20371;-73
2021/12/05 14:17:48;;;;;;;;;;;5.80;99.90;;;;;;5047630;28;20014;-73
2021/12/05 14:20:20;;;;;;;;;;;5.60;99.90;;;;;;5047011;28;19920;-73
2021/12/05 14:22:49;;;;;;;;;;;5.30;99.90;;;;;;5047308;28;19988;-73
2021/12/05 14:25:17;;;;;;;;;;;5.00;99.90;;;;;;5045375;28;19946;-73
2021/12/05 14:27:50;;;;;;;;;;;4.80;99.90;;;;;;5047641;28;20008;-73
2021/12/05 14:30:21;;;;;;;;;;;4.50;99.90;;;;;;5032780;28;19980;-73
2021/12/05 14:32:48;;;;;;;;;;;4.40;99.90;;;;;;5045599;28;20019;-74
2021/12/05 14:35:17;;;;;;;;;;;4.20;99.90;;;;;;5036741;28;19929;-73
2021/12/05 14:37:46;;;;;;;;;;;4.20;99.90;;;;;;5047449;28;20103;-73
2021/12/05 14:40:20;;;;;;;;;;;4.10;99.90;;;;;;5031607;28;20389;-73
2021/12/05 14:42:49;;;;;;;;;;;4.00;99.90;;;;;;5040499;28;19927;-73
2021/12/05 14:45:23;;;;;;;;;;;4.00;99.90;;;;;;5046757;28;19921;-73
2021/12/05 14:47:51;;;;;;;;;;;3.90;99.90;;;;;;5029280;28;19928;-73
2021/12/05 14:50:26;;;;;;;;;;;3.90;99.90;;;;;;5046892;28;19920;-73
2021/12/05 14:52:55;;;;;;;;;;;3.80;99.90;;;;;;5038755;28;20029;-73
2021/12/05 14:55:23;;;;;;;;;;;3.80;99.90;;;;;;5045535;28;19926;-73
2021/12/05 14:57:51;;;;;;;;;;;3.90;99.90;;;;;;5042770;28;20000;-73
2021/12/05 15:00:29;;;;;;;;;;;3.90;99.90;;;;;;5043131;28;20016;-73
2021/12/05 15:02:59;;;;;;;;;;;4.00;99.90;;;;;;5040733;28;19928;-73
2021/12/05 15:05:26;;;;;;;;;;;4.00;99.90;;;;;;5056316;28;19921;-73
2021/12/05 15:08:00;;;;;;;;;;;4.00;99.90;;;;;;5047750;28;19927;-73
2021/12/05 15:10:27;;;;;;;;;;;4.00;99.90;;;;;;5053060;28;19943;-73
2021/12/05 15:12:54;;;;;;;;;;;4.10;99.90;;;;;;5042887;28;19925;-73
2021/12/05 15:15:22;;;;;;;;;;;4.10;99.90;;;;;;5047835;28;20016;-73
2021/12/05 15:17:53;;;;;;;;;;;4.10;99.90;;;;;;5031756;28;19925;-73
2021/12/05 15:20:23;;;;;;;;;;;4.00;99.90;;;;;;5047450;28;20023;-73
2021/12/05 15:22:52;;;;;;;;;;;4.00;99.90;;;;;;5051698;28;19998;-73
2021/12/05 15:25:20;;;;;;;;;;;4.00;99.90;;;;;;5049660;28;20379;-73
2021/12/05 15:27:47;;;;;;;;;;;4.00;99.90;;;;;;5047555;28;19986;-73
2021/12/05 15:30:17;;;;;;;;;;;3.90;99.90;;;;;;5038563;28;20367;-73
2021/12/05 15:32:44;;;;;;;;;;;4.00;99.90;;;;;;5042159;28;19973;-73
2021/12/05 15:35:17;;;;;;;;;;;4.00;99.90;;;;;;5040150;28;20355;-73
2021/12/05 15:37:50;;;;;;;;;;;4.00;99.90;;;;;;5046821;28;20386;-73
2021/12/05 15:40:17;;;;;;;;;;;4.00;99.90;;;;;;5047219;28;19992;-73
2021/12/05 15:42:44;;;;;;;;;;;4.10;99.90;;;;;;5043910;28;19927;-73
2021/12/05 15:45:12;;;;;;;;;;;4.00;99.90;;;;;;5046412;28;19920;-73
2021/12/05 15:47:45;;;;;;;;;;;4.00;99.90;;;;;;5047923;28;20144;-73
2021/12/05 15:50:13;;;;;;;;;;;4.00;99.90;;;;;;5047738;28;20000;-73
2021/12/05 15:52:47;;;;;;;;;;;4.00;99.90;;;;;;5047922;28;20433;-73
2021/12/05 15:55:20;;;;;;;;;;;3.90;99.90;;;;;;5047484;28;20454;-73
2021/12/05 15:57:48;;;;;;;;;;;3.80;99.90;;;;;;5048831;28;20024;-73
2021/12/05 16:00:31;;;;;;;;;;;3.80;99.90;;;;;;5051921;28;19943;-73
2021/12/05 16:02:58;;;;;;;;;;;3.70;99.90;;;;;;5049285;28;20030;-73
2021/12/05 16:05:25;;;;;;;;;;;3.60;99.90;;;;;;5046559;28;19981;-73
2021/12/05 16:08:00;;;;;;;;;;;3.60;99.90;;;;;;5049619;28;19927;-73
2021/12/05 16:10:26;;;;;;;;;;;3.60;99.90;;;;;;5049822;28;21273;-73
2021/12/05 16:12:53;;;;;;;;;;;3.50;99.90;;;;;;5048989;28;19931;-73
2021/12/05 16:15:26;;;;;;;;;;;3.50;99.90;;;;;;5048005;28;20207;-73
2021/12/05 16:17:59;;;;;;;;;;;3.40;99.90;;;;;;5044935;28;20020;-73
2021/12/05 16:20:35;;;;;;;;;;;3.40;99.90;;;;;;5052650;28;19968;-72
2021/12/05 16:23:02;;;;;;;;;;;3.40;99.90;;;;;;5052293;28;19945;-72
2021/12/05 16:25:30;;;;;;;;;;;3.40;99.90;;;;;;5052969;28;19927;-72
2021/12/05 16:28:05;;;;;;;;;;;3.40;99.90;;;;;;5045583;28;19925;-73
2021/12/05 16:30:34;;;;;;;;;;;3.30;99.90;;;;;;5050103;28;19920;-73
2021/12/05 16:33:01;;;;;;;;;;;3.30;99.90;;;;;;5051891;28;19924;-73
2021/12/05 16:35:33;;;;;;;;;;;3.20;99.90;;;;;;5052303;28;19937;-73
2021/12/05 16:38:01;;;;;;;;;;;3.20;99.90;;;;;;5041836;28;20015;-73
2021/12/05 16:40:48;;;;;;;;;;;3.10;99.90;;;;;;5048546;28;19982;-73
2021/12/05 16:43:15;;;;;;;;;;;3.10;99.90;;;;;;5045503;28;19920;-73
2021/12/05 16:45:42;;;;;;;;;;;3.10;99.90;;;;;;5050126;28;19921;-73
2021/12/05 16:48:12;;;;;;;;;;;3.00;99.90;;;;;;5050964;28;19929;-73
2021/12/05 16:50:39;;;;;;;;;;;2.90;99.90;;;;;;5051010;28;20027;-73
2021/12/05 16:53:10;;;;;;;;;;;2.90;99.90;;;;;;5047897;28;20182;-73
2021/12/05 16:55:41;;;;;;;;;;;2.90;99.90;;;;;;5049506;28;20022;-73
2021/12/05 16:58:17;;;;;;;;;;;2.90;99.90;;;;;;5039041;28;19928;-73
2021/12/05 17:00:46;;;;;;;;;;;3.00;99.90;;;;;;5041522;28;20007;-73
2021/12/05 17:03:17;;;;;;;;;;;2.90;99.90;;;;;;5051272;28;19982;-73
2021/12/05 17:05:47;;;;;;;;;;;2.90;99.90;;;;;;5053199;28;19966;-73
2021/12/05 17:08:18;;;;;;;;;;;2.90;99.90;;;;;;5042548;28;19947;-73
2021/12/05 17:10:57;;;;;;;;;;;2.90;99.90;;;;;;5049334;28;20415;-73
2021/12/05 17:13:26;;;;;;;;;;;2.90;99.90;;;;;;5049578;28;19925;-73
2021/12/05 17:15:58;;;;;;;;;;;2.90;99.90;;;;;;5043824;28;19924;-73
2021/12/05 17:18:28;;;;;;;;;;;2.80;99.90;;;;;;5060950;28;19975;-73
2021/12/05 17:20:58;;;;;;;;;;;2.80;99.90;;;;;;5045300;28;19923;-73
2021/12/05 17:23:29;;;;;;;;;;;2.80;99.90;;;;;;5038730;28;20026;-73
2021/12/05 17:26:07;;;;;;;;;;;2.80;99.90;;;;;;5050151;28;19935;-73
2021/12/05 17:28:39;;;;;;;;;;;2.80;99.90;;;;;;5047288;28;20058;-73
2021/12/05 17:31:11;;;;;;;;;;;2.80;99.90;;;;;;5044058;28;20397;-73
2021/12/05 17:33:50;;;;;;;;;;;2.70;99.90;;;;;;5030682;28;19925;-73
2021/12/05 17:36:22;;;;;;;;;;;2.70;99.90;;;;;;5039345;28;20125;-73
2021/12/05 17:38:50;;;;;;;;;;;2.70;99.90;;;;;;5047185;28;19924;-73
2021/12/05 17:41:17;;;;;;;;;;;2.70;99.90;;;;;;5048572;28;19931;-73
2021/12/05 17:43:46;;;;;;;;;;;2.70;99.90;;;;;;5042069;28;19968;-73
2021/12/05 17:46:13;;;;;;;;;;;2.70;99.90;;;;;;5050538;28;19945;-73
2021/12/05 17:48:40;;;;;;;;;;;2.70;99.90;;;;;;5052523;28;19957;-73
2021/12/05 17:51:07;;;;;;;;;;;2.70;99.90;;;;;;5048160;28;19927;-73
2021/12/05 17:53:36;;;;;;;;;;;2.70;99.90;;;;;;5047916;28;20037;-73
2021/12/05 18:04:30;;;;;;;;;;;2.10;99.90;;;;;;5063248;28;19920;-73
2021/12/05 18:06:57;;;;;;;;;;;2.00;99.90;;;;;;5036134;28;19960;-73
2021/12/05 18:09:24;;;;;;;;;;;1.90;99.90;;;;;;5064072;28;19924;-73
2021/12/05 18:11:52;;;;;;;;;;;1.80;99.90;;;;;;5064596;28;20255;-73
2021/12/05 18:14:19;;;;;;;;;;;1.60;99.90;;;;;;5063316;28;19930;-73
2021/12/05 18:16:45;;;;;;;;;;;1.60;99.90;;;;;;5063139;28;20353;-73
2021/12/05 18:19:14;;;;;;;;;;;1.60;99.90;;;;;;5063050;28;19920;-73
2021/12/05 18:21:45;;;;;;;;;;;1.60;99.90;;;;;;5054018;28;19970;-73
2021/12/05 18:24:13;;;;;;;;;;;1.60;99.90;;;;;;5048168;28;19920;-73
2021/12/05 18:26:41;;;;;;;;;;;1.60;99.90;;;;;;5046996;28;20062;-73
2021/12/05 18:29:09;;;;;;;;;;;1.60;99.90;;;;;;5062545;28;20417;-73
2021/12/05 18:31:39;;;;;;;;;;;1.60;99.90;;;;;;5065498;28;19976;-73
2021/12/05 18:34:08;;;;;;;;;;;1.60;99.90;;;;;;5056201;28;19926;-73
2021/12/05 18:36:38;;;;;;;;;;;1.70;99.90;;;;;;5058648;28;19927;-74
2021/12/05 18:39:08;;;;;;;;;;;1.70;99.90;;;;;;5034208;28;19928;-73
2021/12/05 18:41:36;;;;;;;;;;;1.90;99.90;;;;;;5043265;28;20469;-73
2021/12/05 18:44:08;;;;;;;;;;;2.00;99.90;;;;;;5034220;28;20029;-73
2021/12/05 18:46:35;;;;;;;;;;;2.00;99.90;;;;;;5042383;28;19961;-73
2021/12/05 18:49:03;;;;;;;;;;;2.10;99.90;;;;;;5040719;28;20371;-73
2021/12/05 18:51:30;;;;;;;;;;;2.20;99.90;;;;;;5035801;28;20035;-73
2021/12/05 18:53:57;;;;;;;;;;;2.20;99.90;;;;;;5044188;28;19927;-73
2021/12/05 18:56:25;;;;;;;;;;;2.20;99.90;;;;;;5044975;28;19921;-72
2021/12/05 18:58:53;;;;;;;;;;;2.30;99.90;;;;;;5036995;28;20580;-73
2021/12/05 19:04:28;;;;;;;;;;;2.40;99.90;;;;;;5049983;28;19929;-71
2021/12/05 19:07:00;;;;;;;;;;;2.40;99.90;;;;;;5037265;28;19931;-72
2021/12/05 19:12:16;;;;;;;;;;;2.40;99.90;;;;;;5053200;28;19921;-72
2021/12/05 19:14:44;;;;;;;;;;;2.40;99.90;;;;;;5041152;28;19976;-73
2021/12/05 19:17:13;;;;;;;;;;;2.40;99.90;;;;;;5044133;28;20015;-73
2021/12/05 19:19:44;;;;;;;;;;;2.50;99.90;;;;;;5047508;28;20011;-74
2021/12/05 19:22:17;;;;;;;;;;;2.50;99.90;;;;;;5044797;28;19926;-75
2021/12/05 19:24:44;;;;;;;;;;;2.50;99.90;;;;;;5033624;28;20023;-73
2021/12/05 19:27:15;;;;;;;;;;;2.50;99.90;;;;;;5038582;28;19971;-73
2021/12/05 19:29:45;;;;;;;;;;;2.60;99.90;;;;;;5039548;28;19994;-72
2021/12/05 19:32:12;;;;;;;;;;;2.50;99.90;;;;;;5045594;28;19984;-74
2021/12/05 19:34:39;;;;;;;;;;;2.50;99.90;;;;;;5046598;28;19968;-74
2021/12/05 19:37:07;;;;;;;;;;;2.50;99.90;;;;;;5043685;28;20045;-74
2021/12/05 19:39:35;;;;;;;;;;;2.60;99.90;;;;;;5047277;28;19964;-72
2021/12/05 19:42:03;;;;;;;;;;;2.60;99.90;;;;;;5046664;28;20371;-73
2021/12/05 19:44:30;;;;;;;;;;;2.60;99.90;;;;;;5045569;28;19921;-72
2021/12/05 19:46:58;;;;;;;;;;;2.60;99.90;;;;;;5044474;28;19963;-72
2021/12/05 19:49:27;;;;;;;;;;;2.60;99.90;;;;;;5044731;28;19963;-72
2021/12/05 19:51:55;;;;;;;;;;;2.70;99.90;;;;;;5048418;28;19924;-72
2021/12/05 19:54:22;;;;;;;;;;;2.70;99.90;;;;;;5048585;28;19980;-72
2021/12/05 19:56:49;;;;;;;;;;;2.70;99.90;;;;;;5045136;28;19928;-72
2021/12/05 19:59:18;;;;;;;;;;;2.60;99.90;;;;;;5045775;28;20366;-72
2021/12/05 20:01:45;;;;;;;;;;;2.60;99.90;;;;;;5042986;28;19972;-72
2021/12/05 20:04:13;;;;;;;;;;;2.60;99.90;;;;;;5062392;28;19930;-72
2021/12/05 20:06:39;;;;;;;;;;;2.50;99.90;;;;;;5043666;28;19931;-72
2021/12/05 20:09:07;;;;;;;;;;;2.50;99.90;;;;;;5045174;28;19979;-72
2021/12/05 20:11:35;;;;;;;;;;;2.50;99.90;;;;;;5045256;28;19925;-72
2021/12/05 20:14:03;;;;;;;;;;;2.50;99.90;;;;;;5049166;28;19927;-72
2021/12/05 20:16:31;;;;;;;;;;;2.50;99.90;;;;;;5046753;28;19932;-72
2021/12/05 20:18:58;;;;;;;;;;;2.50;99.90;;;;;;5043551;28;19957;-72
2021/12/05 20:21:27;;;;;;;;;;;2.50;99.90;;;;;;5047409;28;19920;-72
2021/12/05 20:23:54;;;;;;;;;;;2.50;99.90;;;;;;5043683;28;19925;-73
2021/12/05 20:26:22;;;;;;;;;;;2.50;99.90;;;;;;5046907;28;19964;-73
2021/12/05 20:28:51;;;;;;;;;;;2.50;99.90;;;;;;5060675;28;19927;-73
2021/12/05 20:31:20;;;;;;;;;;;2.40;99.90;;;;;;5046232;28;19935;-73
2021/12/05 20:33:48;;;;;;;;;;;2.40;99.90;;;;;;5039068;28;19928;-73
2021/12/05 20:36:16;;;;;;;;;;;2.40;99.90;;;;;;5044463;28;20016;-73
2021/12/05 20:38:43;;;;;;;;;;;2.40;99.90;;;;;;5037527;28;19927;-73
2021/12/05 20:41:10;;;;;;;;;;;2.40;99.90;;;;;;5044755;28;20011;-73